sensor_id;sensor_type;location;lat;lon;timestamp;P1;durP1;ratioP1;P2;durP2;ratioP2
1320;SDS011;653;51.480;11.992;2024-02-23T00:00:26;3.30;;;3.10;;
1320;SDS011;653;51.480;11.992;2024-02-23T00:02:55;3.60;;;3.40;;
1320;SDS011;653;51.480;11.992;2024-02-23T00:05:25;3.27;;;2.97;;
1320;SDS011;653;51.480;11.992;2024-02-23T00:07:53;3.13;;;2.93;;
1320;SDS011;653;51.480;11.992;2024-02-23T00:10:19;2.90;;;2.70;;
1320;SDS011;653;51.480;11.992;2024-02-23T00:12:47;2.97;;;2.87;;
1320;SDS011;653;51.480;11.992;2024-02-23T00:15:15;3.30;;;3.10;;
1320;SDS011;653;51.480;11.992;2024-02-23T00:17:44;3.23;;;3.03;;
1320;SDS011;653;51.480;11.992;2024-02-23T00:20:13;3.00;;;2.80;;
1320;SDS011;653;51.480;11.992;2024-02-23T00:22:40;3.10;;;2.90;;
1320;SDS011;653;51.480;11.992;2024-02-23T00:25:08;3.00;;;2.80;;
1320;SDS011;653;51.480;11.992;2024-02-23T00:27:37;2.93;;;2.77;;
1320;SDS011;653;51.480;11.992;2024-02-23T00:30:08;3.17;;;2.97;;
1320;SDS011;653;51.480;11.992;2024-02-23T00:32:34;3.23;;;2.93;;
1320;SDS011;653;51.480;11.992;2024-02-23T00:35:02;3.00;;;2.80;;
1320;SDS011;653;51.480;11.992;2024-02-23T00:37:35;3.20;;;3.00;;
1320;SDS011;653;51.480;11.992;2024-02-23T00:40:03;2.80;;;2.70;;
1320;SDS011;653;51.480;11.992;2024-02-23T00:42:32;2.93;;;2.73;;
1320;SDS011;653;51.480;11.992;2024-02-23T00:45:00;4.37;;;3.40;;
1320;SDS011;653;51.480;11.992;2024-02-23T00:47:30;3.47;;;3.27;;
1320;SDS011;653;51.480;11.992;2024-02-23T00:50:01;3.60;;;3.30;;
1320;SDS011;653;51.480;11.992;2024-02-23T00:52:29;3.30;;;3.10;;
1320;SDS011;653;51.480;11.992;2024-02-23T00:54:59;3.40;;;3.10;;
1320;SDS011;653;51.480;11.992;2024-02-23T00:57:28;3.10;;;2.90;;
1320;SDS011;653;51.480;11.992;2024-02-23T00:59:56;3.30;;;3.10;;
1320;SDS011;653;51.480;11.992;2024-02-23T01:02:23;2.70;;;2.53;;
1320;SDS011;653;51.480;11.992;2024-02-23T01:04:51;3.00;;;2.80;;
1320;SDS011;653;51.480;11.992;2024-02-23T01:07:23;2.53;;;2.43;;
1320;SDS011;653;51.480;11.992;2024-02-23T01:09:53;3.03;;;2.83;;
1320;SDS011;653;51.480;11.992;2024-02-23T01:12:21;2.73;;;2.60;;
1320;SDS011;653;51.480;11.992;2024-02-23T01:14:48;2.93;;;2.83;;
1320;SDS011;653;51.480;11.992;2024-02-23T01:17:18;2.87;;;2.77;;
1320;SDS011;653;51.480;11.992;2024-02-23T01:19:46;2.77;;;2.67;;
1320;SDS011;653;51.480;11.992;2024-02-23T01:22:14;3.07;;;2.90;;
1320;SDS011;653;51.480;11.992;2024-02-23T01:24:40;5.90;;;2.70;;
1320;SDS011;653;51.480;11.992;2024-02-23T01:27:06;2.47;;;2.37;;
1320;SDS011;653;51.480;11.992;2024-02-23T01:29:36;2.50;;;2.00;;
1320;SDS011;653;51.480;11.992;2024-02-23T01:32:06;2.33;;;2.00;;
1320;SDS011;653;51.480;11.992;2024-02-23T01:34:33;2.20;;;2.10;;
1320;SDS011;653;51.480;11.992;2024-02-23T01:37:01;3.33;;;2.10;;
1320;SDS011;653;51.480;11.992;2024-02-23T01:39:29;2.13;;;1.97;;
1320;SDS011;653;51.480;11.992;2024-02-23T01:41:55;2.40;;;1.90;;
1320;SDS011;653;51.480;11.992;2024-02-23T01:44:24;2.20;;;2.00;;
1320;SDS011;653;51.480;11.992;2024-02-23T01:46:53;2.70;;;2.50;;
1320;SDS011;653;51.480;11.992;2024-02-23T01:49:21;2.33;;;2.13;;
1320;SDS011;653;51.480;11.992;2024-02-23T01:51:56;2.53;;;2.33;;
1320;SDS011;653;51.480;11.992;2024-02-23T01:54:24;2.40;;;2.20;;
1320;SDS011;653;51.480;11.992;2024-02-23T01:56:52;3.10;;;2.90;;
1320;SDS011;653;51.480;11.992;2024-02-23T01:59:18;2.30;;;2.10;;
1320;SDS011;653;51.480;11.992;2024-02-23T02:01:46;3.00;;;2.50;;
1320;SDS011;653;51.480;11.992;2024-02-23T02:04:19;2.37;;;2.17;;
1320;SDS011;653;51.480;11.992;2024-02-23T02:06:47;3.20;;;2.30;;
1320;SDS011;653;51.480;11.992;2024-02-23T02:09:15;2.30;;;2.20;;
1320;SDS011;653;51.480;11.992;2024-02-23T02:11:46;2.63;;;2.43;;
1320;SDS011;653;51.480;11.992;2024-02-23T02:14:15;2.33;;;2.13;;
1320;SDS011;653;51.480;11.992;2024-02-23T02:16:42;2.40;;;2.30;;
1320;SDS011;653;51.480;11.992;2024-02-23T02:19:12;2.73;;;2.53;;
1320;SDS011;653;51.480;11.992;2024-02-23T02:21:40;2.80;;;2.10;;
1320;SDS011;653;51.480;11.992;2024-02-23T02:24:10;2.43;;;2.23;;
1320;SDS011;653;51.480;11.992;2024-02-23T02:26:36;2.20;;;2.10;;
1320;SDS011;653;51.480;11.992;2024-02-23T02:29:03;2.17;;;2.07;;
1320;SDS011;653;51.480;11.992;2024-02-23T02:31:29;2.57;;;2.47;;
1320;SDS011;653;51.480;11.992;2024-02-23T02:34:03;2.57;;;2.37;;
1320;SDS011;653;51.480;11.992;2024-02-23T02:36:30;2.87;;;2.27;;
1320;SDS011;653;51.480;11.992;2024-02-23T02:39:03;2.40;;;2.30;;
1320;SDS011;653;51.480;11.992;2024-02-23T02:41:31;2.27;;;2.17;;
1320;SDS011;653;51.480;11.992;2024-02-23T02:43:57;2.20;;;2.10;;
1320;SDS011;653;51.480;11.992;2024-02-23T02:46:23;2.60;;;2.40;;
1320;SDS011;653;51.480;11.992;2024-02-23T02:48:51;2.27;;;2.17;;
1320;SDS011;653;51.480;11.992;2024-02-23T02:51:18;2.33;;;2.13;;
1320;SDS011;653;51.480;11.992;2024-02-23T02:53:46;3.00;;;2.70;;
1320;SDS011;653;51.480;11.992;2024-02-23T02:56:19;2.50;;;2.37;;
1320;SDS011;653;51.480;11.992;2024-02-23T02:58:45;2.73;;;2.63;;
1320;SDS011;653;51.480;11.992;2024-02-23T03:01:12;3.83;;;2.93;;
1320;SDS011;653;51.480;11.992;2024-02-23T03:03:38;2.60;;;2.40;;
1320;SDS011;653;51.480;11.992;2024-02-23T03:06:06;2.87;;;2.67;;
1320;SDS011;653;51.480;11.992;2024-02-23T03:08:34;2.40;;;2.30;;
1320;SDS011;653;51.480;11.992;2024-02-23T03:11:03;2.70;;;2.60;;
1320;SDS011;653;51.480;11.992;2024-02-23T03:13:32;3.13;;;2.93;;
1320;SDS011;653;51.480;11.992;2024-02-23T03:15:59;4.60;;;3.17;;
1320;SDS011;653;51.480;11.992;2024-02-23T03:18:26;2.50;;;2.30;;
1320;SDS011;653;51.480;11.992;2024-02-23T03:20:54;2.80;;;2.60;;
1320;SDS011;653;51.480;11.992;2024-02-23T03:23:23;2.30;;;2.20;;
1320;SDS011;653;51.480;11.992;2024-02-23T03:25:50;2.67;;;2.57;;
1320;SDS011;653;51.480;11.992;2024-02-23T03:28:18;2.83;;;2.63;;
1320;SDS011;653;51.480;11.992;2024-02-23T03:30:46;2.60;;;2.40;;
1320;SDS011;653;51.480;11.992;2024-02-23T03:33:15;2.40;;;2.20;;
1320;SDS011;653;51.480;11.992;2024-02-23T03:35:41;2.63;;;2.53;;
1320;SDS011;653;51.480;11.992;2024-02-23T03:38:09;2.77;;;2.57;;
1320;SDS011;653;51.480;11.992;2024-02-23T03:40:37;3.07;;;2.73;;
1320;SDS011;653;51.480;11.992;2024-02-23T03:43:08;3.80;;;2.80;;
1320;SDS011;653;51.480;11.992;2024-02-23T03:45:35;2.40;;;2.30;;
1320;SDS011;653;51.480;11.992;2024-02-23T03:48:05;2.93;;;2.73;;
1320;SDS011;653;51.480;11.992;2024-02-23T03:50:33;3.27;;;3.00;;
1320;SDS011;653;51.480;11.992;2024-02-23T03:53:00;2.60;;;2.50;;
1320;SDS011;653;51.480;11.992;2024-02-23T03:55:28;2.33;;;2.17;;
1320;SDS011;653;51.480;11.992;2024-02-23T03:57:56;2.67;;;2.57;;
1320;SDS011;653;51.480;11.992;2024-02-23T04:00:23;3.97;;;3.03;;
1320;SDS011;653;51.480;11.992;2024-02-23T04:02:51;3.17;;;2.97;;
1320;SDS011;653;51.480;11.992;2024-02-23T04:05:19;2.80;;;2.60;;
1320;SDS011;653;51.480;11.992;2024-02-23T04:07:45;3.00;;;2.80;;
1320;SDS011;653;51.480;11.992;2024-02-23T04:10:12;2.73;;;2.63;;
1320;SDS011;653;51.480;11.992;2024-02-23T04:12:42;2.77;;;2.60;;
1320;SDS011;653;51.480;11.992;2024-02-23T04:15:10;2.70;;;2.50;;
1320;SDS011;653;51.480;11.992;2024-02-23T04:17:36;3.93;;;2.80;;
1320;SDS011;653;51.480;11.992;2024-02-23T04:20:05;2.40;;;2.20;;
1320;SDS011;653;51.480;11.992;2024-02-23T04:22:33;2.63;;;2.43;;
1320;SDS011;653;51.480;11.992;2024-02-23T04:25:01;2.50;;;2.40;;
1320;SDS011;653;51.480;11.992;2024-02-23T04:27:31;2.67;;;2.57;;
1320;SDS011;653;51.480;11.992;2024-02-23T04:30:01;2.70;;;2.50;;
1320;SDS011;653;51.480;11.992;2024-02-23T04:32:29;2.53;;;2.33;;
1320;SDS011;653;51.480;11.992;2024-02-23T04:34:57;3.37;;;3.17;;
1320;SDS011;653;51.480;11.992;2024-02-23T04:37:25;2.43;;;2.33;;
1320;SDS011;653;51.480;11.992;2024-02-23T04:39:54;3.30;;;2.63;;
1320;SDS011;653;51.480;11.992;2024-02-23T04:42:22;2.50;;;2.30;;
1320;SDS011;653;51.480;11.992;2024-02-23T04:44:48;2.13;;;2.03;;
1320;SDS011;653;51.480;11.992;2024-02-23T04:47:19;2.47;;;2.27;;
1320;SDS011;653;51.480;11.992;2024-02-23T04:49:46;2.37;;;2.27;;
1320;SDS011;653;51.480;11.992;2024-02-23T04:52:13;3.50;;;2.47;;
1320;SDS011;653;51.480;11.992;2024-02-23T04:54:41;6.83;;;3.03;;
1320;SDS011;653;51.480;11.992;2024-02-23T04:57:10;2.03;;;1.93;;
1320;SDS011;653;51.480;11.992;2024-02-23T04:59:36;2.30;;;2.20;;
1320;SDS011;653;51.480;11.992;2024-02-23T05:02:04;2.60;;;2.40;;
1320;SDS011;653;51.480;11.992;2024-02-23T05:04:32;2.27;;;2.17;;
1320;SDS011;653;51.480;11.992;2024-02-23T05:06:58;2.50;;;2.40;;
1320;SDS011;653;51.480;11.992;2024-02-23T05:09:25;2.67;;;2.47;;
1320;SDS011;653;51.480;11.992;2024-02-23T05:11:52;2.77;;;2.57;;
1320;SDS011;653;51.480;11.992;2024-02-23T05:14:23;2.40;;;2.30;;
1320;SDS011;653;51.480;11.992;2024-02-23T05:16:51;2.53;;;2.43;;
1320;SDS011;653;51.480;11.992;2024-02-23T05:19:19;3.20;;;3.00;;
1320;SDS011;653;51.480;11.992;2024-02-23T05:21:47;3.00;;;2.90;;
1320;SDS011;653;51.480;11.992;2024-02-23T05:24:13;3.23;;;3.03;;
1320;SDS011;653;51.480;11.992;2024-02-23T05:26:41;2.90;;;2.70;;
1320;SDS011;653;51.480;11.992;2024-02-23T05:29:09;2.40;;;2.30;;
1320;SDS011;653;51.480;11.992;2024-02-23T05:31:47;2.77;;;2.67;;
1320;SDS011;653;51.480;11.992;2024-02-23T05:34:17;3.17;;;2.87;;
1320;SDS011;653;51.480;11.992;2024-02-23T05:36:44;2.90;;;2.80;;
1320;SDS011;653;51.480;11.992;2024-02-23T05:39:12;2.80;;;2.70;;
1320;SDS011;653;51.480;11.992;2024-02-23T05:41:40;3.00;;;2.90;;
1320;SDS011;653;51.480;11.992;2024-02-23T05:44:07;2.97;;;2.80;;
1320;SDS011;653;51.480;11.992;2024-02-23T05:46:34;3.00;;;2.90;;
1320;SDS011;653;51.480;11.992;2024-02-23T05:49:03;3.30;;;3.00;;
1320;SDS011;653;51.480;11.992;2024-02-23T05:51:32;4.13;;;2.60;;
1320;SDS011;653;51.480;11.992;2024-02-23T05:54:01;3.13;;;2.93;;
1320;SDS011;653;51.480;11.992;2024-02-23T05:56:27;3.00;;;2.90;;
1320;SDS011;653;51.480;11.992;2024-02-23T05:58:54;3.00;;;2.80;;
1320;SDS011;653;51.480;11.992;2024-02-23T06:01:22;2.90;;;2.80;;
1320;SDS011;653;51.480;11.992;2024-02-23T06:03:48;2.63;;;2.53;;
1320;SDS011;653;51.480;11.992;2024-02-23T06:06:17;2.90;;;2.73;;
1320;SDS011;653;51.480;11.992;2024-02-23T06:08:45;3.20;;;3.00;;
1320;SDS011;653;51.480;11.992;2024-02-23T06:11:16;3.37;;;3.07;;
1320;SDS011;653;51.480;11.992;2024-02-23T06:13:43;3.17;;;2.97;;
1320;SDS011;653;51.480;11.992;2024-02-23T06:16:10;3.90;;;3.60;;
1320;SDS011;653;51.480;11.992;2024-02-23T06:18:38;2.80;;;2.70;;
1320;SDS011;653;51.480;11.992;2024-02-23T06:21:14;3.10;;;2.90;;
1320;SDS011;653;51.480;11.992;2024-02-23T06:23:43;3.30;;;3.10;;
1320;SDS011;653;51.480;11.992;2024-02-23T06:26:09;4.13;;;2.60;;
1320;SDS011;653;51.480;11.992;2024-02-23T06:28:36;2.80;;;2.60;;
1320;SDS011;653;51.480;11.992;2024-02-23T06:31:05;3.50;;;3.30;;
1320;SDS011;653;51.480;11.992;2024-02-23T06:33:32;3.37;;;3.17;;
1320;SDS011;653;51.480;11.992;2024-02-23T06:36:00;2.97;;;2.70;;
1320;SDS011;653;51.480;11.992;2024-02-23T06:38:28;5.27;;;3.47;;
1320;SDS011;653;51.480;11.992;2024-02-23T06:40:57;2.70;;;2.60;;
1320;SDS011;653;51.480;11.992;2024-02-23T06:43:25;3.53;;;3.30;;
1320;SDS011;653;51.480;11.992;2024-02-23T06:45:53;3.20;;;3.00;;
1320;SDS011;653;51.480;11.992;2024-02-23T06:48:20;3.10;;;2.90;;
1320;SDS011;653;51.480;11.992;2024-02-23T06:50:47;3.67;;;3.37;;
1320;SDS011;653;51.480;11.992;2024-02-23T06:53:15;3.20;;;3.00;;
1320;SDS011;653;51.480;11.992;2024-02-23T06:55:41;3.47;;;3.27;;
1320;SDS011;653;51.480;11.992;2024-02-23T06:58:10;3.07;;;2.87;;
1320;SDS011;653;51.480;11.992;2024-02-23T07:00:38;3.83;;;3.63;;
1320;SDS011;653;51.480;11.992;2024-02-23T07:03:06;2.97;;;2.77;;
1320;SDS011;653;51.480;11.992;2024-02-23T07:05:34;3.30;;;3.10;;
1320;SDS011;653;51.480;11.992;2024-02-23T07:08:02;2.93;;;2.83;;
1320;SDS011;653;51.480;11.992;2024-02-23T07:10:29;3.97;;;3.67;;
1320;SDS011;653;51.480;11.992;2024-02-23T07:12:56;3.33;;;3.10;;
1320;SDS011;653;51.480;11.992;2024-02-23T07:15:24;3.80;;;3.53;;
1320;SDS011;653;51.480;11.992;2024-02-23T07:17:52;3.20;;;3.00;;
1320;SDS011;653;51.480;11.992;2024-02-23T07:20:20;4.30;;;3.90;;
1320;SDS011;653;51.480;11.992;2024-02-23T07:22:46;4.17;;;3.87;;
1320;SDS011;653;51.480;11.992;2024-02-23T07:25:15;3.57;;;3.37;;
1320;SDS011;653;51.480;11.992;2024-02-23T07:27:42;3.70;;;3.50;;
1320;SDS011;653;51.480;11.992;2024-02-23T07:30:10;3.97;;;3.50;;
1320;SDS011;653;51.480;11.992;2024-02-23T07:32:38;3.70;;;3.30;;
1320;SDS011;653;51.480;11.992;2024-02-23T07:35:06;3.53;;;3.33;;
1320;SDS011;653;51.480;11.992;2024-02-23T07:37:34;3.83;;;3.60;;
1320;SDS011;653;51.480;11.992;2024-02-23T07:40:04;4.07;;;3.77;;
1320;SDS011;653;51.480;11.992;2024-02-23T07:42:33;5.10;;;3.80;;
1320;SDS011;653;51.480;11.992;2024-02-23T07:45:04;3.93;;;3.60;;
1320;SDS011;653;51.480;11.992;2024-02-23T07:47:35;3.70;;;3.40;;
1320;SDS011;653;51.480;11.992;2024-02-23T07:50:09;3.50;;;3.30;;
1320;SDS011;653;51.480;11.992;2024-02-23T07:52:36;3.00;;;2.90;;
1320;SDS011;653;51.480;11.992;2024-02-23T07:55:05;5.03;;;3.43;;
1320;SDS011;653;51.480;11.992;2024-02-23T07:57:34;3.87;;;3.57;;
1320;SDS011;653;51.480;11.992;2024-02-23T08:00:06;3.30;;;3.10;;
1320;SDS011;653;51.480;11.992;2024-02-23T08:02:35;3.87;;;3.67;;
1320;SDS011;653;51.480;11.992;2024-02-23T08:05:04;3.40;;;3.20;;
1320;SDS011;653;51.480;11.992;2024-02-23T08:07:33;3.73;;;3.53;;
1320;SDS011;653;51.480;11.992;2024-02-23T08:10:01;3.93;;;3.63;;
1320;SDS011;653;51.480;11.992;2024-02-23T08:12:28;4.23;;;3.83;;
1320;SDS011;653;51.480;11.992;2024-02-23T08:14:56;4.77;;;3.70;;
1320;SDS011;653;51.480;11.992;2024-02-23T08:17:24;4.10;;;3.80;;
1320;SDS011;653;51.480;11.992;2024-02-23T08:19:52;4.40;;;4.00;;
1320;SDS011;653;51.480;11.992;2024-02-23T08:22:21;4.23;;;3.80;;
1320;SDS011;653;51.480;11.992;2024-02-23T08:24:48;3.70;;;3.50;;
1320;SDS011;653;51.480;11.992;2024-02-23T08:27:14;3.57;;;3.37;;
1320;SDS011;653;51.480;11.992;2024-02-23T08:29:43;4.07;;;3.87;;
1320;SDS011;653;51.480;11.992;2024-02-23T08:32:11;4.00;;;3.80;;
1320;SDS011;653;51.480;11.992;2024-02-23T08:34:38;3.73;;;3.43;;
1320;SDS011;653;51.480;11.992;2024-02-23T08:37:05;3.83;;;3.53;;
1320;SDS011;653;51.480;11.992;2024-02-23T08:39:35;3.60;;;3.30;;
1320;SDS011;653;51.480;11.992;2024-02-23T08:42:03;3.63;;;3.43;;
1320;SDS011;653;51.480;11.992;2024-02-23T08:44:32;3.93;;;3.63;;
1320;SDS011;653;51.480;11.992;2024-02-23T08:47:00;3.80;;;3.60;;
1320;SDS011;653;51.480;11.992;2024-02-23T08:49:29;3.70;;;3.50;;
1320;SDS011;653;51.480;11.992;2024-02-23T08:51:56;3.43;;;3.13;;
1320;SDS011;653;51.480;11.992;2024-02-23T08:54:25;4.37;;;4.07;;
1320;SDS011;653;51.480;11.992;2024-02-23T08:56:54;3.60;;;3.40;;
1320;SDS011;653;51.480;11.992;2024-02-23T08:59:21;4.80;;;3.77;;
1320;SDS011;653;51.480;11.992;2024-02-23T09:01:48;3.47;;;3.27;;
1320;SDS011;653;51.480;11.992;2024-02-23T09:04:15;3.77;;;3.57;;
1320;SDS011;653;51.480;11.992;2024-02-23T09:06:42;3.40;;;3.20;;
1320;SDS011;653;51.480;11.992;2024-02-23T09:09:09;4.30;;;3.50;;
1320;SDS011;653;51.480;11.992;2024-02-23T09:11:38;3.57;;;3.27;;
1320;SDS011;653;51.480;11.992;2024-02-23T09:14:09;4.03;;;3.83;;
1320;SDS011;653;51.480;11.992;2024-02-23T09:16:43;3.90;;;3.70;;
1320;SDS011;653;51.480;11.992;2024-02-23T09:19:10;4.10;;;3.37;;
1320;SDS011;653;51.480;11.992;2024-02-23T09:21:37;3.47;;;3.13;;
1320;SDS011;653;51.480;11.992;2024-02-23T09:24:05;3.53;;;3.07;;
1320;SDS011;653;51.480;11.992;2024-02-23T09:26:33;5.10;;;4.53;;
1320;SDS011;653;51.480;11.992;2024-02-23T09:29:01;4.10;;;3.80;;
1320;SDS011;653;51.480;11.992;2024-02-23T09:31:28;3.60;;;3.17;;
1320;SDS011;653;51.480;11.992;2024-02-23T09:33:57;3.57;;;3.37;;
1320;SDS011;653;51.480;11.992;2024-02-23T09:36:25;3.80;;;3.60;;
1320;SDS011;653;51.480;11.992;2024-02-23T09:38:53;3.40;;;3.10;;
1320;SDS011;653;51.480;11.992;2024-02-23T09:41:23;5.93;;;4.30;;
1320;SDS011;653;51.480;11.992;2024-02-23T09:43:50;3.90;;;3.70;;
1320;SDS011;653;51.480;11.992;2024-02-23T09:46:17;3.50;;;3.30;;
1320;SDS011;653;51.480;11.992;2024-02-23T09:48:47;3.83;;;3.40;;
1320;SDS011;653;51.480;11.992;2024-02-23T09:51:16;3.60;;;3.40;;
1320;SDS011;653;51.480;11.992;2024-02-23T09:53:44;3.50;;;3.20;;
1320;SDS011;653;51.480;11.992;2024-02-23T09:56:12;3.73;;;3.53;;
1320;SDS011;653;51.480;11.992;2024-02-23T09:58:42;4.13;;;3.70;;
1320;SDS011;653;51.480;11.992;2024-02-23T10:01:11;3.70;;;3.40;;
1320;SDS011;653;51.480;11.992;2024-02-23T10:03:37;3.27;;;3.07;;
1320;SDS011;653;51.480;11.992;2024-02-23T10:06:07;4.27;;;3.20;;
1320;SDS011;653;51.480;11.992;2024-02-23T10:08:34;4.20;;;3.97;;
1320;SDS011;653;51.480;11.992;2024-02-23T10:11:02;3.87;;;3.57;;
1320;SDS011;653;51.480;11.992;2024-02-23T10:13:30;3.43;;;3.23;;
1320;SDS011;653;51.480;11.992;2024-02-23T10:15:58;4.07;;;3.67;;
1320;SDS011;653;51.480;11.992;2024-02-23T10:18:24;3.47;;;3.23;;
1320;SDS011;653;51.480;11.992;2024-02-23T10:20:50;3.40;;;3.20;;
1320;SDS011;653;51.480;11.992;2024-02-23T10:23:21;3.63;;;3.40;;
1320;SDS011;653;51.480;11.992;2024-02-23T10:25:47;3.87;;;3.57;;
1320;SDS011;653;51.480;11.992;2024-02-23T10:28:15;5.23;;;3.73;;
1320;SDS011;653;51.480;11.992;2024-02-23T10:30:41;3.83;;;3.53;;
1320;SDS011;653;51.480;11.992;2024-02-23T10:33:08;3.57;;;3.33;;
1320;SDS011;653;51.480;11.992;2024-02-23T10:35:35;4.13;;;3.77;;
1320;SDS011;653;51.480;11.992;2024-02-23T10:38:08;3.77;;;3.43;;
1320;SDS011;653;51.480;11.992;2024-02-23T10:40:41;3.50;;;3.30;;
1320;SDS011;653;51.480;11.992;2024-02-23T10:43:12;3.47;;;3.27;;
1320;SDS011;653;51.480;11.992;2024-02-23T10:45:47;3.10;;;3.00;;
1320;SDS011;653;51.480;11.992;2024-02-23T10:48:14;4.13;;;3.83;;
1320;SDS011;653;51.480;11.992;2024-02-23T10:50:42;3.90;;;3.70;;
1320;SDS011;653;51.480;11.992;2024-02-23T10:53:14;3.77;;;3.53;;
1320;SDS011;653;51.480;11.992;2024-02-23T10:55:44;3.70;;;3.37;;
1320;SDS011;653;51.480;11.992;2024-02-23T10:58:21;4.73;;;3.73;;
1320;SDS011;653;51.480;11.992;2024-02-23T11:00:50;3.30;;;3.10;;
1320;SDS011;653;51.480;11.992;2024-02-23T11:03:24;3.40;;;3.20;;
1320;SDS011;653;51.480;11.992;2024-02-23T11:05:52;7.53;;;3.73;;
1320;SDS011;653;51.480;11.992;2024-02-23T11:08:19;3.60;;;3.40;;
1320;SDS011;653;51.480;11.992;2024-02-23T11:10:50;3.87;;;3.57;;
1320;SDS011;653;51.480;11.992;2024-02-23T11:13:32;3.77;;;3.47;;
1320;SDS011;653;51.480;11.992;2024-02-23T11:16:06;3.83;;;3.57;;
1320;SDS011;653;51.480;11.992;2024-02-23T11:18:47;3.40;;;2.73;;
1320;SDS011;653;51.480;11.992;2024-02-23T11:21:19;5.50;;;3.40;;
1320;SDS011;653;51.480;11.992;2024-02-23T11:23:48;3.30;;;3.10;;
1320;SDS011;653;51.480;11.992;2024-02-23T11:26:17;9.33;;;3.20;;
1320;SDS011;653;51.480;11.992;2024-02-23T11:28:44;3.03;;;2.70;;
1320;SDS011;653;51.480;11.992;2024-02-23T11:31:13;3.23;;;3.03;;
1320;SDS011;653;51.480;11.992;2024-02-23T11:33:52;4.17;;;3.03;;
1320;SDS011;653;51.480;11.992;2024-02-23T11:36:34;3.83;;;3.47;;
1320;SDS011;653;51.480;11.992;2024-02-23T11:39:02;3.40;;;3.20;;
1320;SDS011;653;51.480;11.992;2024-02-23T11:41:31;3.70;;;3.50;;
1320;SDS011;653;51.480;11.992;2024-02-23T11:44:01;3.70;;;3.50;;
1320;SDS011;653;51.480;11.992;2024-02-23T11:46:28;3.40;;;3.20;;
1320;SDS011;653;51.480;11.992;2024-02-23T11:48:56;3.60;;;3.40;;
1320;SDS011;653;51.480;11.992;2024-02-23T11:51:25;7.47;;;3.33;;
1320;SDS011;653;51.480;11.992;2024-02-23T11:53:52;4.37;;;3.87;;
1320;SDS011;653;51.480;11.992;2024-02-23T11:56:22;3.87;;;3.57;;
1320;SDS011;653;51.480;11.992;2024-02-23T11:58:50;3.40;;;3.17;;
1320;SDS011;653;51.480;11.992;2024-02-23T12:01:17;4.17;;;3.67;;
1320;SDS011;653;51.480;11.992;2024-02-23T12:03:45;3.80;;;3.60;;
1320;SDS011;653;51.480;11.992;2024-02-23T12:06:15;3.30;;;3.00;;
1320;SDS011;653;51.480;11.992;2024-02-23T12:08:43;3.47;;;3.20;;
1320;SDS011;653;51.480;11.992;2024-02-23T12:11:11;6.40;;;4.00;;
1320;SDS011;653;51.480;11.992;2024-02-23T12:13:40;4.20;;;3.90;;
1320;SDS011;653;51.480;11.992;2024-02-23T12:16:08;3.37;;;3.17;;
1320;SDS011;653;51.480;11.992;2024-02-23T12:18:38;4.23;;;3.33;;
1320;SDS011;653;51.480;11.992;2024-02-23T12:21:08;3.37;;;3.20;;
1320;SDS011;653;51.480;11.992;2024-02-23T12:23:40;4.80;;;4.50;;
1320;SDS011;653;51.480;11.992;2024-02-23T12:26:08;4.23;;;3.47;;
1320;SDS011;653;51.480;11.992;2024-02-23T12:28:39;4.20;;;3.90;;
1320;SDS011;653;51.480;11.992;2024-02-23T12:31:05;4.67;;;4.37;;
1320;SDS011;653;51.480;11.992;2024-02-23T12:33:35;3.67;;;3.37;;
1320;SDS011;653;51.480;11.992;2024-02-23T12:36:04;4.13;;;3.83;;
1320;SDS011;653;51.480;11.992;2024-02-23T12:38:32;3.80;;;3.40;;
1320;SDS011;653;51.480;11.992;2024-02-23T12:41:00;3.70;;;3.40;;
1320;SDS011;653;51.480;11.992;2024-02-23T12:43:27;4.37;;;4.03;;
1320;SDS011;653;51.480;11.992;2024-02-23T12:45:55;3.70;;;3.50;;
1320;SDS011;653;51.480;11.992;2024-02-23T12:48:23;4.50;;;4.10;;
1320;SDS011;653;51.480;11.992;2024-02-23T12:50:51;3.30;;;3.10;;
1320;SDS011;653;51.480;11.992;2024-02-23T12:56:03;4.60;;;4.20;;
1320;SDS011;653;51.480;11.992;2024-02-23T12:58:30;3.80;;;3.60;;
1320;SDS011;653;51.480;11.992;2024-02-23T13:00:57;4.80;;;3.70;;
1320;SDS011;653;51.480;11.992;2024-02-23T13:03:25;3.53;;;3.33;;
1320;SDS011;653;51.480;11.992;2024-02-23T13:05:55;3.03;;;2.80;;
1320;SDS011;653;51.480;11.992;2024-02-23T13:08:24;4.50;;;4.10;;
1320;SDS011;653;51.480;11.992;2024-02-23T13:10:53;4.10;;;3.80;;
1320;SDS011;653;51.480;11.992;2024-02-23T13:13:21;6.27;;;5.27;;
1320;SDS011;653;51.480;11.992;2024-02-23T13:15:49;4.23;;;3.93;;
1320;SDS011;653;51.480;11.992;2024-02-23T13:18:17;3.73;;;3.40;;
1320;SDS011;653;51.480;11.992;2024-02-23T13:20:45;3.57;;;3.27;;
1320;SDS011;653;51.480;11.992;2024-02-23T13:23:14;5.07;;;3.20;;
1320;SDS011;653;51.480;11.992;2024-02-23T13:25:41;3.93;;;3.57;;
1320;SDS011;653;51.480;11.992;2024-02-23T13:28:09;4.30;;;3.80;;
1320;SDS011;653;51.480;11.992;2024-02-23T13:30:37;3.43;;;3.00;;
1320;SDS011;653;51.480;11.992;2024-02-23T13:33:05;3.30;;;3.10;;
1320;SDS011;653;51.480;11.992;2024-02-23T13:35:33;4.73;;;4.13;;
1320;SDS011;653;51.480;11.992;2024-02-23T13:38:00;3.33;;;3.13;;
1320;SDS011;653;51.480;11.992;2024-02-23T13:40:31;3.90;;;3.60;;
1320;SDS011;653;51.480;11.992;2024-02-23T13:42:58;6.17;;;4.10;;
1320;SDS011;653;51.480;11.992;2024-02-23T13:45:25;4.07;;;3.77;;
1320;SDS011;653;51.480;11.992;2024-02-23T13:48:00;4.10;;;3.60;;
1320;SDS011;653;51.480;11.992;2024-02-23T13:50:26;3.87;;;3.57;;
1320;SDS011;653;51.480;11.992;2024-02-23T13:52:54;4.20;;;3.80;;
1320;SDS011;653;51.480;11.992;2024-02-23T13:55:22;3.60;;;3.30;;
1320;SDS011;653;51.480;11.992;2024-02-23T13:57:51;4.13;;;3.73;;
1320;SDS011;653;51.480;11.992;2024-02-23T14:00:18;3.33;;;3.13;;
1320;SDS011;653;51.480;11.992;2024-02-23T14:02:46;4.60;;;3.80;;
1320;SDS011;653;51.480;11.992;2024-02-23T14:05:14;4.27;;;3.97;;
1320;SDS011;653;51.480;11.992;2024-02-23T14:07:43;3.60;;;3.30;;
1320;SDS011;653;51.480;11.992;2024-02-23T14:10:13;4.07;;;3.77;;
1320;SDS011;653;51.480;11.992;2024-02-23T14:12:41;3.80;;;3.50;;
1320;SDS011;653;51.480;11.992;2024-02-23T14:15:09;4.07;;;3.77;;
1320;SDS011;653;51.480;11.992;2024-02-23T14:17:35;3.40;;;3.10;;
1320;SDS011;653;51.480;11.992;2024-02-23T14:20:02;4.10;;;3.80;;
1320;SDS011;653;51.480;11.992;2024-02-23T14:22:28;3.93;;;3.70;;
1320;SDS011;653;51.480;11.992;2024-02-23T14:24:58;3.43;;;3.13;;
1320;SDS011;653;51.480;11.992;2024-02-23T14:27:28;3.30;;;3.10;;
1320;SDS011;653;51.480;11.992;2024-02-23T14:29:57;3.80;;;3.60;;
1320;SDS011;653;51.480;11.992;2024-02-23T14:32:25;3.83;;;3.53;;
1320;SDS011;653;51.480;11.992;2024-02-23T14:34:52;8.53;;;4.10;;
1320;SDS011;653;51.480;11.992;2024-02-23T14:37:21;6.93;;;4.13;;
1320;SDS011;653;51.480;11.992;2024-02-23T14:39:48;3.80;;;3.50;;
1320;SDS011;653;51.480;11.992;2024-02-23T14:42:16;4.10;;;3.80;;
1320;SDS011;653;51.480;11.992;2024-02-23T14:44:43;3.93;;;3.73;;
1320;SDS011;653;51.480;11.992;2024-02-23T14:47:09;3.93;;;3.63;;
1320;SDS011;653;51.480;11.992;2024-02-23T14:49:37;3.90;;;3.60;;
1320;SDS011;653;51.480;11.992;2024-02-23T14:52:10;5.30;;;3.17;;
1320;SDS011;653;51.480;11.992;2024-02-23T14:54:37;4.37;;;3.97;;
1320;SDS011;653;51.480;11.992;2024-02-23T14:57:05;3.60;;;3.40;;
1320;SDS011;653;51.480;11.992;2024-02-23T14:59:33;4.03;;;3.60;;
1320;SDS011;653;51.480;11.992;2024-02-23T15:02:01;3.40;;;3.20;;
1320;SDS011;653;51.480;11.992;2024-02-23T15:04:29;3.47;;;3.17;;
1320;SDS011;653;51.480;11.992;2024-02-23T15:06:59;3.57;;;3.30;;
1320;SDS011;653;51.480;11.992;2024-02-23T15:09:27;4.17;;;3.60;;
1320;SDS011;653;51.480;11.992;2024-02-23T15:11:54;3.20;;;3.00;;
1320;SDS011;653;51.480;11.992;2024-02-23T15:14:22;3.60;;;3.30;;
1320;SDS011;653;51.480;11.992;2024-02-23T15:16:49;6.37;;;3.30;;
1320;SDS011;653;51.480;11.992;2024-02-23T15:19:16;5.93;;;4.30;;
1320;SDS011;653;51.480;11.992;2024-02-23T15:21:42;4.17;;;3.70;;
1320;SDS011;653;51.480;11.992;2024-02-23T15:24:12;3.77;;;3.47;;